createdAt,value
2018-05-24T00:01:16.771Z,3.17
2018-05-24T00:03:46.157Z,3.17
2018-05-24T00:06:15.069Z,3.37
2018-05-24T00:08:43.559Z,3.30
2018-05-24T00:11:12.432Z,2.70
2018-05-24T00:13:40.559Z,3.00
2018-05-24T00:16:08.718Z,2.90
2018-05-24T00:18:36.835Z,3.40
2018-05-24T00:21:05.742Z,3.33
2018-05-24T00:23:33.872Z,3.10
2018-05-24T00:26:02.018Z,3.10
2018-05-24T00:28:30.172Z,3.17
2018-05-24T00:30:58.712Z,3.27
2018-05-24T00:33:27.524Z,3.53
2018-05-24T00:35:55.666Z,3.70
2018-05-24T00:38:23.792Z,3.20
2018-05-24T00:40:52.649Z,3.10
2018-05-24T00:43:21.543Z,3.27
2018-05-24T00:45:50.445Z,3.27
2018-05-24T00:48:21.077Z,2.77
2018-05-24T00:50:49.227Z,3.90
2018-05-24T00:53:17.348Z,3.20
2018-05-24T00:55:46.719Z,3.23
2018-05-24T00:58:15.596Z,3.50
2018-05-24T01:00:44.424Z,3.27
2018-05-24T01:03:13.688Z,2.93
2018-05-24T01:05:42.597Z,3.30
2018-05-24T01:08:11.585Z,3.10
2018-05-24T01:10:40.510Z,3.23
2018-05-24T01:13:08.636Z,3.80
2018-05-24T01:15:37.536Z,3.20
2018-05-24T01:18:06.434Z,3.20
2018-05-24T01:20:34.577Z,3.03
2018-05-24T01:23:02.715Z,3.50
2018-05-24T01:25:30.839Z,3.37
2018-05-24T01:27:59.803Z,3.37
2018-05-24T01:30:28.718Z,3.20
2018-05-24T01:32:57.197Z,3.40
2018-05-24T01:35:26.011Z,4.00
2018-05-24T01:37:54.174Z,4.13
2018-05-24T01:40:23.065Z,3.83
2018-05-24T01:42:51.959Z,3.93
2018-05-24T01:45:21.857Z,3.60
2018-05-24T01:47:50.773Z,3.67
2018-05-24T01:50:18.913Z,3.57
2018-05-24T01:52:48.889Z,3.90
2018-05-24T01:55:18.475Z,3.90
2018-05-24T01:57:50.373Z,4.03
2018-05-24T02:00:18.503Z,3.20
2018-05-24T02:02:47.351Z,3.63
2018-05-24T02:05:15.493Z,4.57
2018-05-24T02:07:43.638Z,4.07
2018-05-24T02:10:16.485Z,4.27
2018-05-24T02:12:44.629Z,3.80
2018-05-24T02:15:12.760Z,4.30
2018-05-24T02:17:42.188Z,3.90
2018-05-24T02:20:10.892Z,5.13
2018-05-24T02:22:39.044Z,4.03
2018-05-24T02:25:07.167Z,4.30
2018-05-24T02:27:35.317Z,3.77
2018-05-24T02:30:03.501Z,4.30
2018-05-24T02:32:31.643Z,4.67
2018-05-24T02:34:59.765Z,4.07
2018-05-24T02:37:34.129Z,4.20
2018-05-24T02:40:03.828Z,4.70
2018-05-24T02:42:32.750Z,3.90
2018-05-24T02:45:01.776Z,4.30
2018-05-24T02:47:29.872Z,4.50
2018-05-24T02:49:58.530Z,4.30
2018-05-24T02:52:26.949Z,4.00
2018-05-24T02:54:55.837Z,4.67
2018-05-24T02:57:24.759Z,4.57
2018-05-24T02:59:53.961Z,4.87
2018-05-24T03:02:22.105Z,4.53
2018-05-24T03:04:50.996Z,5.40
2018-05-24T03:07:20.535Z,4.77
2018-05-24T03:09:48.665Z,4.50
2018-05-24T03:12:16.817Z,5.40
2018-05-24T03:14:44.944Z,4.57
2018-05-24T03:17:13.094Z,4.53
2018-05-24T03:19:42.108Z,4.13
2018-05-24T03:22:10.256Z,5.43
2018-05-24T03:24:39.145Z,5.10
2018-05-24T03:27:07.288Z,3.83
2018-05-24T03:29:38.981Z,4.77
2018-05-24T03:32:07.882Z,4.50
2018-05-24T03:34:36.775Z,4.80
2018-05-24T03:37:04.937Z,4.23
2018-05-24T03:39:33.824Z,4.27
2018-05-24T03:42:03.251Z,4.30
2018-05-24T03:44:31.374Z,4.10
2018-05-24T03:46:59.521Z,5.13
2018-05-24T03:49:27.656Z,4.50
2018-05-24T03:51:56.554Z,5.30
2018-05-24T03:54:26.249Z,4.50
2018-05-24T03:56:55.169Z,4.93
2018-05-24T04:02:46.047Z,4.97
2018-05-24T04:05:14.169Z,5.13
2018-05-24T04:07:43.037Z,4.97
2018-05-24T04:10:13.076Z,5.03
2018-05-24T04:12:41.247Z,5.70
2018-05-24T04:15:10.150Z,4.83
2018-05-24T04:17:38.864Z,4.47
2018-05-24T04:20:07.207Z,5.00
2018-05-24T04:22:36.117Z,5.00
2018-05-24T04:25:08.424Z,5.83
2018-05-24T04:27:36.576Z,5.23
2018-05-24T04:30:04.729Z,5.03
2018-05-24T04:32:48.577Z,5.27
2018-05-24T04:35:20.476Z,5.23
2018-05-24T04:37:48.615Z,5.10
2018-05-24T04:40:17.662Z,6.00
2018-05-24T04:42:45.933Z,5.30
2018-05-24T04:45:15.284Z,5.13
2018-05-24T04:47:43.428Z,5.00
2018-05-24T04:50:13.460Z,5.70
2018-05-24T04:52:42.376Z,6.00
2018-05-24T04:55:10.501Z,5.20
2018-05-24T04:57:39.481Z,4.73
2018-05-24T05:00:07.613Z,5.23
2018-05-24T05:02:39.724Z,5.73
2018-05-24T05:05:07.855Z,5.27
2018-05-24T05:07:36.015Z,5.70
2018-05-24T05:10:04.921Z,5.87
2018-05-24T05:12:34.526Z,5.33
2018-05-24T05:15:02.648Z,5.90
2018-05-24T05:17:30.840Z,6.10
2018-05-24T05:19:58.965Z,5.30
2018-05-24T05:22:27.130Z,6.10
2018-05-24T05:25:00.124Z,5.80
2018-05-24T05:27:28.274Z,6.10
2018-05-24T05:29:57.180Z,6.23
2018-05-24T05:32:25.764Z,9.30
2018-05-24T05:34:53.915Z,6.73
2018-05-24T05:37:23.172Z,8.37
2018-05-24T05:39:52.230Z,7.20
2018-05-24T05:42:22.008Z,6.57
2018-05-24T05:44:50.249Z,6.67
2018-05-24T05:47:26.562Z,6.43
2018-05-24T05:49:54.705Z,7.80
2018-05-24T05:52:22.826Z,8.00
2018-05-24T05:54:53.374Z,6.40
2018-05-24T05:57:21.482Z,6.53
2018-05-24T05:59:56.367Z,6.40
2018-05-24T06:02:24.504Z,6.50
2018-05-24T06:04:52.668Z,6.30
2018-05-24T06:07:22.221Z,6.70
2018-05-24T06:09:50.376Z,7.27
2018-05-24T06:12:20.099Z,6.47
2018-05-24T06:14:49.013Z,6.00
2018-05-24T06:17:17.139Z,6.87
2018-05-24T06:19:45.282Z,6.87
2018-05-24T06:22:13.421Z,6.73
2018-05-24T06:24:41.560Z,6.93
2018-05-24T06:27:10.638Z,7.47
2018-05-24T06:29:38.796Z,8.70
2018-05-24T06:32:06.913Z,7.20
2018-05-24T06:34:37.684Z,8.13
2018-05-24T06:37:05.808Z,7.40
2018-05-24T06:39:33.968Z,8.80
2018-05-24T06:42:02.107Z,7.80
2018-05-24T06:44:30.257Z,8.30
2018-05-24T06:46:59.140Z,7.63
2018-05-24T06:49:31.302Z,9.07
2018-05-24T06:52:00.368Z,8.40
2018-05-24T06:54:28.592Z,9.40
2018-05-24T06:56:57.055Z,8.27
2018-05-24T06:59:28.945Z,8.77
2018-05-24T07:01:57.079Z,8.83
2018-05-24T07:04:25.249Z,9.20
2018-05-24T07:06:55.504Z,8.20
2018-05-24T07:09:24.037Z,9.27
2018-05-24T07:11:52.160Z,8.90
2018-05-24T07:14:20.318Z,8.00
2018-05-24T07:16:49.217Z,8.40
2018-05-24T07:19:18.412Z,9.47
2018-05-24T07:21:47.328Z,9.00
2018-05-24T07:24:15.485Z,8.73
2018-05-24T07:26:45.303Z,7.80
2018-05-24T07:29:15.267Z,8.30
2018-05-24T07:31:43.396Z,7.73
2018-05-24T07:34:11.553Z,8.83
2018-05-24T07:36:41.273Z,8.20
2018-05-24T07:39:10.179Z,9.60
2018-05-24T07:41:38.889Z,7.87
2018-05-24T07:44:07.099Z,9.03
2018-05-24T07:46:36.513Z,8.60
2018-05-24T07:49:05.446Z,9.27
2018-05-24T07:51:33.563Z,8.13
2018-05-24T07:54:02.934Z,9.53
2018-05-24T07:56:31.069Z,8.73
2018-05-24T07:58:59.988Z,9.27
2018-05-24T08:01:28.118Z,9.73
2018-05-24T08:03:57.685Z,10.20
2018-05-24T08:06:28.763Z,9.90
2018-05-24T08:08:57.590Z,9.20
2018-05-24T08:11:25.735Z,9.77
2018-05-24T08:13:53.874Z,10.10
2018-05-24T08:16:23.241Z,9.90
2018-05-24T08:18:52.721Z,9.77
2018-05-24T08:21:21.681Z,10.97
2018-05-24T08:23:49.832Z,10.03
2018-05-24T08:26:18.061Z,9.90
2018-05-24T08:28:48.229Z,10.13
2018-05-24T08:31:16.768Z,10.23
2018-05-24T08:33:45.684Z,10.40
2018-05-24T08:36:15.047Z,10.70
2018-05-24T08:38:43.234Z,10.70
2018-05-24T08:41:12.163Z,10.80
2018-05-24T08:43:40.303Z,10.40
2018-05-24T08:46:09.243Z,10.17
2018-05-24T08:48:37.490Z,10.37
2018-05-24T08:51:20.384Z,10.30
2018-05-24T08:53:48.992Z,11.07
2018-05-24T08:56:19.447Z,11.10
2018-05-24T08:58:48.572Z,11.70
2018-05-24T09:01:17.892Z,11.50
2018-05-24T09:03:45.998Z,11.07
2018-05-24T09:06:15.975Z,11.30
2018-05-24T09:08:44.143Z,11.80
2018-05-24T09:11:12.288Z,11.77
2018-05-24T09:13:41.345Z,12.63
2018-05-24T09:16:11.316Z,12.10
2018-05-24T09:18:39.905Z,12.07
2018-05-24T09:21:09.124Z,12.43
2018-05-24T09:23:38.127Z,13.10
2018-05-24T09:26:09.158Z,13.33
2018-05-24T09:28:37.295Z,12.30
2018-05-24T09:31:07.080Z,13.03
2018-05-24T09:33:37.181Z,12.47
2018-05-24T09:36:06.163Z,12.30
2018-05-24T09:38:35.046Z,12.10
2018-05-24T09:41:05.814Z,13.07
2018-05-24T09:43:34.981Z,12.00
2018-05-24T09:46:04.092Z,11.80
2018-05-24T09:48:34.499Z,12.77
2018-05-24T09:51:04.287Z,12.97
2018-05-24T09:53:32.407Z,14.00
2018-05-24T09:56:04.670Z,13.10
2018-05-24T09:58:34.899Z,13.80
2018-05-24T10:01:03.664Z,14.60
2018-05-24T10:03:32.445Z,14.60
2018-05-24T10:06:00.601Z,14.10
2018-05-24T10:08:30.668Z,14.77
2018-05-24T10:10:59.660Z,16.20
2018-05-24T10:13:30.345Z,15.23
2018-05-24T10:15:58.944Z,14.80
2018-05-24T10:18:31.939Z,14.50
2018-05-24T10:21:01.673Z,16.13
2018-05-24T10:23:30.765Z,15.40
2018-05-24T10:26:00.840Z,15.63
2018-05-24T10:28:28.981Z,16.17
2018-05-24T10:30:58.939Z,14.20
2018-05-24T10:33:27.092Z,15.70
2018-05-24T10:35:55.249Z,15.97
2018-05-24T10:38:25.178Z,15.37
2018-05-24T10:40:54.096Z,13.87
2018-05-24T10:43:30.548Z,16.27
2018-05-24T10:46:02.421Z,15.50
2018-05-24T10:48:33.829Z,15.40
2018-05-24T10:51:06.038Z,16.33
2018-05-24T10:53:34.184Z,16.60
2018-05-24T10:56:04.595Z,16.90
2018-05-24T10:58:35.574Z,16.60
2018-05-24T11:01:03.820Z,17.10
2018-05-24T11:03:32.589Z,17.80
2018-05-24T11:06:01.364Z,18.57
2018-05-24T11:08:29.628Z,17.90
2018-05-24T11:10:59.697Z,19.70
2018-05-24T11:13:29.234Z,19.37
2018-05-24T11:15:58.292Z,24.70
2018-05-24T11:18:26.487Z,20.70
2018-05-24T11:20:56.164Z,20.43
2018-05-24T11:23:26.200Z,22.07
2018-05-24T11:25:54.418Z,23.73
2018-05-24T11:28:25.029Z,26.00
2018-05-24T11:30:53.348Z,25.13
2018-05-24T11:33:24.280Z,26.47
2018-05-24T11:35:54.532Z,26.33
2018-05-24T11:38:24.055Z,26.60
2018-05-24T11:40:53.541Z,25.73
2018-05-24T11:43:25.354Z,25.47
2018-05-24T11:45:54.824Z,23.10
2018-05-24T11:48:25.084Z,25.80
2018-05-24T11:50:54.520Z,25.27
2018-05-24T11:53:24.012Z,25.07
2018-05-24T11:55:53.424Z,25.67
2018-05-24T11:58:23.728Z,25.30
2018-05-24T12:00:55.082Z,25.90
2018-05-24T12:03:24.713Z,27.23
2018-05-24T12:05:54.760Z,29.40
2018-05-24T12:08:24.607Z,25.43
2018-05-24T12:10:54.039Z,25.70
2018-05-24T12:13:23.491Z,23.80
2018-05-24T12:15:52.896Z,27.40
2018-05-24T12:18:22.363Z,26.07
2018-05-24T12:20:52.188Z,27.27
2018-05-24T12:23:21.934Z,27.87
2018-05-24T12:25:51.587Z,27.13
2018-05-24T12:28:21.848Z,24.87
2018-05-24T12:30:51.359Z,25.60
2018-05-24T12:33:21.205Z,26.60
2018-05-24T12:35:50.613Z,24.70
2018-05-24T12:38:20.007Z,24.87
2018-05-24T12:40:49.414Z,26.03
2018-05-24T12:43:18.794Z,26.53
2018-05-24T12:45:48.209Z,25.60
2018-05-24T12:48:18.102Z,26.50
2018-05-24T12:50:52.516Z,25.90
2018-05-24T12:53:23.180Z,26.40
2018-05-24T12:55:52.573Z,26.47
2018-05-24T12:58:22.004Z,27.77
2018-05-24T13:00:51.455Z,24.63
2018-05-24T13:03:20.850Z,25.77
2018-05-24T13:05:50.292Z,26.73
2018-05-24T13:08:19.688Z,24.70
2018-05-24T13:10:49.094Z,26.60
2018-05-24T13:13:21.055Z,25.90
2018-05-24T13:15:52.672Z,26.13
2018-05-24T13:18:22.060Z,28.00
2018-05-24T13:20:51.477Z,25.57
2018-05-24T13:23:21.515Z,25.93
2018-05-24T13:25:50.921Z,25.33
2018-05-24T13:28:20.319Z,26.10
2018-05-24T13:30:56.406Z,25.30
2018-05-24T13:33:26.205Z,23.80
2018-05-24T13:35:56.117Z,24.20
2018-05-24T13:38:25.547Z,25.17
2018-05-24T13:40:54.958Z,26.43
2018-05-24T13:43:24.350Z,24.90
2018-05-24T13:45:54.622Z,24.90
2018-05-24T13:48:24.019Z,24.30
2018-05-24T13:50:53.452Z,25.40
2018-05-24T13:53:22.871Z,25.60
2018-05-24T13:55:52.300Z,23.90
2018-05-24T13:58:21.687Z,24.57
2018-05-24T14:00:51.248Z,24.70
2018-05-24T14:03:20.631Z,22.60
2018-05-24T14:05:50.034Z,24.37
2018-05-24T14:08:19.425Z,25.73
2018-05-24T14:10:48.849Z,24.17
2018-05-24T14:13:18.252Z,25.07
2018-05-24T14:15:48.443Z,24.70
2018-05-24T14:18:21.595Z,25.20
2018-05-24T14:20:51.005Z,24.80
2018-05-24T14:23:20.381Z,26.30
2018-05-24T14:25:50.251Z,26.43
2018-05-24T14:28:21.796Z,25.47
2018-05-24T14:30:51.696Z,27.13
2018-05-24T14:33:21.092Z,25.77
2018-05-24T14:35:51.168Z,27.10
2018-05-24T14:38:21.412Z,26.23
2018-05-24T14:40:50.853Z,28.47
2018-05-24T14:43:20.895Z,27.00
2018-05-24T14:45:50.315Z,28.67
2018-05-24T14:48:19.699Z,28.17
2018-05-24T14:50:49.121Z,26.30
2018-05-24T14:53:18.515Z,28.20
2018-05-24T14:55:47.921Z,25.57
2018-05-24T14:58:18.525Z,25.50
2018-05-24T15:00:47.946Z,27.77
2018-05-24T15:03:17.383Z,26.47
2018-05-24T15:05:46.787Z,27.97
2018-05-24T15:08:22.370Z,26.57
2018-05-24T15:10:53.543Z,28.27
2018-05-24T15:13:29.689Z,30.40
2018-05-24T15:15:59.843Z,30.13
2018-05-24T15:18:30.280Z,27.00
2018-05-24T15:21:00.229Z,28.33
2018-05-24T15:23:29.630Z,28.70
2018-05-24T15:26:00.299Z,29.50
2018-05-24T15:28:33.717Z,29.17
2018-05-24T15:31:04.477Z,30.93
2018-05-24T15:33:34.032Z,28.87
2018-05-24T15:36:03.463Z,31.83
2018-05-24T15:38:32.634Z,30.47
2018-05-24T15:41:07.874Z,29.97
2018-05-24T15:43:43.094Z,32.80
2018-05-24T15:46:18.462Z,29.30
2018-05-24T15:48:47.508Z,32.80
2018-05-24T15:51:17.648Z,31.33
2018-05-24T15:53:46.675Z,31.77
2018-05-24T15:56:15.668Z,32.17
2018-05-24T15:58:45.628Z,33.57
2018-05-24T16:01:14.602Z,31.70
2018-05-24T16:03:43.572Z,34.70
2018-05-24T16:06:12.567Z,31.67
2018-05-24T16:08:41.536Z,31.90
2018-05-24T16:11:10.860Z,35.07
2018-05-24T16:13:40.276Z,32.43
2018-05-24T16:16:10.004Z,36.30
2018-05-24T16:18:38.975Z,36.57
2018-05-24T16:21:08.966Z,34.33
2018-05-24T16:23:37.948Z,34.00
2018-05-24T16:26:07.691Z,34.33
2018-05-24T16:28:36.652Z,36.47
2018-05-24T16:31:05.644Z,34.53
2018-05-24T16:33:34.607Z,35.67
2018-05-24T16:36:03.638Z,31.00
2018-05-24T16:38:32.678Z,26.57
2018-05-24T16:41:01.672Z,26.67
2018-05-24T16:43:30.678Z,27.13
2018-05-24T16:45:59.659Z,26.60
2018-05-24T16:48:28.617Z,28.20
2018-05-24T16:50:57.622Z,29.90
2018-05-24T16:53:27.457Z,28.87
2018-05-24T16:55:56.865Z,27.37
2018-05-24T16:58:25.846Z,25.83
2018-05-24T17:00:54.821Z,23.87
2018-05-24T17:03:23.891Z,23.83
2018-05-24T17:05:54.710Z,22.50
2018-05-24T17:08:24.585Z,23.73
2018-05-24T17:10:53.567Z,22.50
2018-05-24T17:13:22.574Z,22.00
2018-05-24T17:15:51.552Z,21.93
2018-05-24T17:18:20.932Z,21.50
2018-05-24T17:20:49.885Z,21.90
2018-05-24T17:23:18.879Z,21.83
2018-05-24T17:25:47.867Z,23.03
2018-05-24T17:28:18.364Z,21.87
2018-05-24T17:30:47.835Z,21.37
2018-05-24T17:33:16.916Z,22.80
2018-05-24T17:35:45.884Z,23.60
2018-05-24T17:38:14.876Z,25.10
2018-05-24T17:40:43.849Z,26.43
2018-05-24T17:43:14.057Z,27.87
2018-05-24T17:45:43.878Z,28.30
2018-05-24T17:48:13.523Z,28.90
2018-05-24T17:50:45.329Z,29.23
2018-05-24T17:53:15.387Z,28.97
2018-05-24T17:55:44.836Z,26.43
2018-05-24T17:58:15.108Z,24.10
2018-05-24T18:00:44.216Z,23.60
2018-05-24T18:03:13.219Z,22.87
2018-05-24T18:05:42.213Z,22.87
2018-05-24T18:08:12.080Z,21.43
2018-05-24T18:10:42.365Z,20.63
2018-05-24T18:13:11.351Z,20.67
2018-05-24T18:15:40.321Z,21.83
2018-05-24T18:18:09.303Z,22.77
2018-05-24T18:20:38.312Z,22.87
2018-05-24T18:23:07.293Z,23.33
2018-05-24T18:25:37.136Z,23.77
2018-05-24T18:28:07.692Z,22.17
2018-05-24T18:30:36.694Z,21.43
2018-05-24T18:33:05.677Z,20.47
2018-05-24T18:35:35.541Z,20.80
2018-05-24T18:38:04.925Z,19.83
2018-05-24T18:40:36.069Z,20.40
2018-05-24T18:43:05.050Z,22.03
2018-05-24T18:45:36.201Z,20.83
2018-05-24T18:48:08.166Z,20.90
2018-05-24T18:50:37.300Z,20.20
2018-05-24T18:53:07.093Z,18.90
2018-05-24T18:55:36.116Z,19.40
2018-05-24T18:58:05.205Z,19.20
2018-05-24T19:00:34.167Z,18.87
2018-05-24T19:03:03.197Z,19.03
2018-05-24T19:05:32.180Z,18.27
2018-05-24T19:08:01.223Z,19.80
2018-05-24T19:10:30.208Z,18.70
2018-05-24T19:12:59.216Z,18.93
2018-05-24T19:15:30.000Z,17.97
2018-05-24T19:17:59.452Z,18.57
2018-05-24T19:20:28.444Z,18.30
2018-05-24T19:22:57.508Z,17.97
2018-05-24T19:25:26.506Z,17.50
2018-05-24T19:27:56.623Z,17.40
2018-05-24T19:30:27.967Z,17.00
2018-05-24T19:32:59.325Z,18.80
2018-05-24T19:35:29.561Z,18.67
2018-05-24T19:37:59.221Z,19.20
2018-05-24T19:40:28.264Z,21.57
2018-05-24T19:42:59.392Z,19.93
2018-05-24T19:45:28.364Z,19.13
2018-05-24T19:47:59.424Z,19.53
2018-05-24T19:50:28.866Z,20.23
2018-05-24T19:52:58.663Z,20.17
2018-05-24T19:55:27.680Z,19.90
2018-05-24T19:57:56.655Z,18.80
2018-05-24T20:00:25.639Z,18.30
2018-05-24T20:02:54.633Z,17.27
2018-05-24T20:05:23.639Z,19.40
2018-05-24T20:07:52.614Z,18.93
2018-05-24T20:10:21.581Z,18.10
2018-05-24T20:12:50.709Z,17.77
2018-05-24T20:15:19.868Z,17.93
2018-05-24T20:17:49.013Z,18.77
2018-05-24T20:20:18.145Z,17.63
2018-05-24T20:22:48.039Z,17.57
2018-05-24T20:25:17.123Z,18.70
2018-05-24T20:27:46.170Z,20.07
2018-05-24T20:30:15.126Z,18.50
2018-05-24T20:32:44.178Z,19.60
2018-05-24T20:35:25.332Z,19.80
2018-05-24T20:37:59.553Z,19.63
2018-05-24T20:40:32.848Z,19.80
2018-05-24T20:43:01.889Z,20.17
2018-05-24T20:45:31.791Z,21.10
2018-05-24T20:48:01.244Z,21.40
2018-05-24T20:50:30.326Z,22.17
2018-05-24T20:53:00.515Z,22.90
2018-05-24T20:55:30.619Z,22.43
2018-05-24T20:57:59.677Z,21.70
2018-05-24T21:00:32.189Z,23.67
2018-05-24T21:03:02.924Z,22.90
2018-05-24T21:05:32.205Z,24.10
2018-05-24T21:08:01.295Z,23.43
2018-05-24T21:10:35.562Z,23.87
2018-05-24T21:13:06.308Z,22.83
2018-05-24T21:15:36.778Z,23.60
2018-05-24T21:18:07.185Z,22.67
2018-05-24T21:20:36.182Z,23.33
2018-05-24T21:23:05.664Z,21.00
2018-05-24T21:25:34.643Z,23.67
2018-05-24T21:28:04.999Z,23.20
2018-05-24T21:30:34.221Z,23.00
2018-05-24T21:33:03.432Z,23.80
2018-05-24T21:35:34.878Z,23.27
2018-05-24T21:38:04.911Z,24.10
2018-05-24T21:40:33.947Z,22.77
2018-05-24T21:43:07.996Z,23.40
2018-05-24T21:45:36.960Z,23.10
2018-05-24T21:48:07.655Z,24.33
2018-05-24T21:50:37.694Z,25.30
2018-05-24T21:53:07.585Z,22.63
2018-05-24T21:55:36.978Z,23.87
2018-05-24T21:58:05.983Z,24.50
2018-05-24T22:00:34.964Z,24.87
2018-05-24T22:03:05.711Z,24.83
2018-05-24T22:05:34.685Z,24.97
2018-05-24T22:08:03.664Z,22.80
2018-05-24T22:10:32.632Z,23.83
2018-05-24T22:13:01.623Z,22.10
2018-05-24T22:15:30.578Z,22.97
2018-05-24T22:17:59.551Z,21.73
2018-05-24T22:20:28.507Z,21.40
2018-05-24T22:22:57.497Z,21.30
2018-05-24T22:25:26.475Z,21.30
2018-05-24T22:27:55.464Z,23.47
2018-05-24T22:30:24.424Z,23.40
2018-05-24T22:32:53.451Z,24.60
2018-05-24T22:35:23.783Z,24.43
2018-05-24T22:37:52.768Z,25.90
2018-05-24T22:40:21.756Z,25.20
2018-05-24T22:42:51.638Z,26.43
2018-05-24T22:45:21.133Z,25.07
2018-05-24T22:47:51.069Z,26.10
2018-05-24T22:50:20.770Z,26.27
2018-05-24T22:52:49.898Z,24.80
2018-05-24T22:55:18.863Z,25.53
2018-05-24T22:57:47.869Z,25.40
2018-05-24T23:00:16.859Z,25.00
2018-05-24T23:02:45.876Z,25.97
2018-05-24T23:05:15.642Z,27.10
2018-05-24T23:07:44.610Z,24.70
2018-05-24T23:10:13.600Z,25.40
2018-05-24T23:12:42.567Z,23.60
2018-05-24T23:15:11.567Z,24.40
2018-05-24T23:17:40.525Z,25.93
2018-05-24T23:20:09.512Z,24.77
2018-05-24T23:22:38.497Z,23.67
2018-05-24T23:25:07.485Z,22.93
2018-05-24T23:27:36.456Z,22.07
2018-05-24T23:30:05.810Z,22.70
2018-05-24T23:32:34.776Z,22.73
2018-05-24T23:35:03.753Z,23.73
2018-05-24T23:37:33.614Z,19.53
2018-05-24T23:40:02.639Z,19.83
2018-05-24T23:42:33.059Z,19.90
2018-05-24T23:45:02.105Z,19.30
2018-05-24T23:47:31.007Z,19.90
2018-05-24T23:49:59.982Z,18.87
2018-05-24T23:52:28.951Z,19.13
2018-05-24T23:54:57.929Z,19.60
2018-05-24T23:57:26.904Z,20.03
2018-05-24T23:59:55.882Z,20.97
